Time;durP1;ratioP1;P1;durP2;ratioP2;P2;SDS_P1;SDS_P2;PMS_P1;PMS_P2;Temp;Humidity;BMP_temperature;BMP_pressure;BME280_temperature;BME280_humidity;BME280_pressure;Samples;Min_cycle;Max_cycle;Signal;HPM_P1;HPM_P2
2021/07/29 00:01:47;;;;;;;1.57;1.47;;;20.60;99.90;;;;;;4969604;28;20451;-81
2021/07/29 00:04:16;;;;;;;1.70;1.60;;;20.60;99.90;;;;;;4981474;28;20486;-79
2021/07/29 00:06:45;;;;;;;3.60;1.87;;;20.60;99.90;;;;;;4978700;28;20825;-81
2021/07/29 00:09:13;;;;;;;1.37;1.27;;;20.60;99.90;;;;;;4987603;28;20530;-83
2021/07/29 00:11:41;;;;;;;1.47;1.20;;;20.60;99.90;;;;;;4980454;28;20442;-81
2021/07/29 00:14:09;;;;;;;5.50;1.50;;;20.70;99.90;;;;;;4990464;28;20473;-81
2021/07/29 00:16:43;;;;;;;1.53;1.43;;;20.80;99.90;;;;;;4975287;28;20479;-82
2021/07/29 00:19:11;;;;;;;1.07;1.07;;;20.80;99.90;;;;;;4984586;28;20925;-81
2021/07/29 00:21:40;;;;;;;1.80;1.40;;;20.80;99.90;;;;;;4985864;28;20475;-80
2021/07/29 00:24:10;;;;;;;1.50;1.33;;;20.90;99.90;;;;;;4970899;28;20464;-81
2021/07/29 00:26:39;;;;;;;2.20;1.23;;;21.00;99.90;;;;;;4980909;28;20513;-82
2021/07/29 00:29:08;;;;;;;1.63;1.53;;;20.90;99.90;;;;;;4975245;28;20474;-79
2021/07/29 00:31:36;;;;;;;2.70;1.40;;;20.80;99.90;;;;;;4987041;28;20463;-80
2021/07/29 00:34:05;;;;;;;1.57;1.30;;;20.80;99.90;;;;;;4976790;28;20490;-80
2021/07/29 00:36:33;;;;;;;1.70;1.60;;;20.80;99.90;;;;;;4973961;28;20522;-80
2021/07/29 00:39:01;;;;;;;1.50;1.40;;;20.80;99.90;;;;;;4972710;28;20631;-79
2021/07/29 00:41:31;;;;;;;1.60;1.50;;;20.80;99.90;;;;;;4975459;28;20474;-80
2021/07/29 00:44:01;;;;;;;1.70;1.60;;;20.70;99.90;;;;;;4960396;28;20481;-80
2021/07/29 00:46:30;;;;;;;1.87;1.73;;;20.70;99.90;;;;;;4971943;28;20476;-81
2021/07/29 00:48:59;;;;;;;2.33;1.83;;;20.70;99.90;;;;;;4986132;28;20857;-82
2021/07/29 00:51:28;;;;;;;1.40;1.27;;;20.70;99.90;;;;;;4972032;28;20826;-82
2021/07/29 00:53:57;;;;;;;2.00;1.90;;;20.60;99.90;;;;;;4981976;28;20521;-80
2021/07/29 00:56:26;;;;;;;1.53;1.43;;;20.60;99.90;;;;;;4972955;28;20870;-81
2021/07/29 00:58:55;;;;;;;2.20;1.50;;;20.80;99.90;;;;;;4972944;28;21108;-79
2021/07/29 01:01:23;;;;;;;1.90;1.70;;;20.90;99.90;;;;;;4978248;28;20818;-81
2021/07/29 01:03:52;;;;;;;2.13;1.63;;;20.90;99.90;;;;;;4971540;28;20455;-83
2021/07/29 01:06:20;;;;;;;2.80;1.90;;;20.90;99.90;;;;;;4972459;28;21011;-81
2021/07/29 01:08:59;;;;;;;2.03;1.83;;;20.80;99.90;;;;;;4981606;28;20993;-78
2021/07/29 01:11:27;;;;;;;5.20;2.10;;;20.80;99.90;;;;;;4979042;28;20947;-81
2021/07/29 01:13:57;;;;;;;2.50;2.10;;;20.70;99.90;;;;;;4974626;28;20558;-80
2021/07/29 01:16:25;;;;;;;1.67;1.57;;;20.60;99.90;;;;;;4976037;28;20538;-81
2021/07/29 01:18:54;;;;;;;1.87;1.77;;;20.60;99.90;;;;;;4983646;28;20487;-81
2021/07/29 01:21:26;;;;;;;3.00;2.37;;;20.60;99.90;;;;;;4986285;28;20515;-80
2021/07/29 01:23:54;;;;;;;2.07;1.97;;;20.70;99.90;;;;;;4977750;28;20516;-80
2021/07/29 01:26:22;;;;;;;1.80;1.70;;;20.60;1.00;;;;;;4967898;28;20451;-79
2021/07/29 01:28:50;;;;;;;2.60;2.40;;;20.70;1.00;;;;;;4985965;28;20501;-80
2021/07/29 01:31:19;;;;;;;2.90;1.70;;;20.70;1.00;;;;;;4983367;28;20480;-79
2021/07/29 01:33:47;;;;;;;1.60;1.50;;;20.80;1.00;;;;;;4972158;28;20831;-80
2021/07/29 01:36:15;;;;;;;2.20;1.87;;;20.80;1.00;;;;;;4973922;28;20462;-80
2021/07/29 01:38:45;;;;;;;2.67;2.07;;;20.80;1.00;;;;;;4970618;28;20455;-81
2021/07/29 01:41:13;;;;;;;1.93;1.70;;;20.90;99.90;;;;;;4971253;28;20481;-80
2021/07/29 01:43:41;;;;;;;1.73;1.63;;;20.80;99.90;;;;;;4973012;28;20483;-80
2021/07/29 01:46:09;;;;;;;2.77;2.47;;;20.80;99.90;;;;;;4971143;28;20535;-79
2021/07/29 01:48:37;;;;;;;1.90;1.67;;;20.80;99.90;;;;;;4968503;28;20950;-79
2021/07/29 01:51:06;;;;;;;1.87;1.60;;;20.70;99.90;;;;;;4978577;28;20885;-79
2021/07/29 01:53:34;;;;;;;3.20;2.10;;;20.70;99.90;;;;;;4969764;28;20449;-79
2021/07/29 01:56:07;;;;;;;2.33;1.97;;;20.70;99.90;;;;;;4977961;28;20460;-79
2021/07/29 01:58:35;;;;;;;2.87;2.20;;;20.70;99.90;;;;;;4973045;28;20464;-80
2021/07/29 02:01:04;;;;;;;2.40;1.90;;;20.60;99.90;;;;;;4972863;28;20502;-79
2021/07/29 02:03:32;;;;;;;3.70;2.27;;;20.60;99.90;;;;;;4973655;28;21014;-79
2021/07/29 02:06:02;;;;;;;2.67;2.37;;;20.60;99.90;;;;;;4971706;28;20469;-79
2021/07/29 02:08:31;;;;;;;2.93;2.00;;;20.60;99.90;;;;;;4971845;28;20484;-79
2021/07/29 02:11:05;;;;;;;2.83;2.63;;;20.50;1.00;;;;;;4972950;28;20483;-82
2021/07/29 02:13:33;;;;;;;4.07;2.17;;;20.50;99.90;;;;;;4969753;28;20467;-79
2021/07/29 02:16:01;;;;;;;2.07;1.73;;;20.50;99.90;;;;;;4969427;28;20439;-81
2021/07/29 02:18:30;;;;;;;2.87;2.03;;;20.50;1.00;;;;;;4970906;28;20563;-81
2021/07/29 02:20:58;;;;;;;2.37;2.20;;;20.50;1.00;;;;;;4970476;28;20484;-81
2021/07/29 02:23:26;;;;;;;3.13;2.23;;;20.50;1.00;;;;;;4966929;28;20455;-81
2021/07/29 02:25:54;;;;;;;2.90;2.60;;;20.50;1.00;;;;;;4977725;28;20467;-80
2021/07/29 02:28:23;;;;;;;2.97;2.60;;;20.50;1.00;;;;;;4976014;28;20438;-79
2021/07/29 02:30:51;;;;;;;2.43;2.23;;;20.50;1.00;;;;;;4978947;28;20487;-79
2021/07/29 02:33:19;;;;;;;3.73;3.40;;;20.50;1.00;;;;;;4976032;28;20463;-78
2021/07/29 02:35:49;;;;;;;4.20;1.93;;;20.50;1.00;;;;;;4971374;28;20506;-78
2021/07/29 02:38:17;;;;;;;3.47;2.63;;;20.40;1.00;;;;;;4970943;28;20459;-79
2021/07/29 02:40:45;;;;;;;2.47;2.23;;;20.40;1.00;;;;;;4975064;28;20529;-79
2021/07/29 02:43:13;;;;;;;2.40;2.13;;;20.40;1.00;;;;;;4970762;28;20451;-79
2021/07/29 02:45:43;;;;;;;2.93;2.63;;;20.40;1.00;;;;;;4965671;28;20693;-79
2021/07/29 02:48:10;;;;;;;2.93;2.70;;;20.40;1.00;;;;;;4979241;28;20553;-80
2021/07/29 02:50:39;;;;;;;3.10;2.53;;;20.40;1.00;;;;;;4970595;28;20483;-80
2021/07/29 02:53:07;;;;;;;2.50;2.30;;;20.40;1.00;;;;;;4976070;28;20460;-80
2021/07/29 02:55:35;;;;;;;2.60;2.23;;;20.30;1.00;;;;;;4955087;28;20462;-80
2021/07/29 02:58:03;;;;;;;3.23;2.90;;;20.30;1.00;;;;;;4970975;28;20459;-79
2021/07/29 03:00:31;;;;;;;2.47;2.20;;;20.30;1.00;;;;;;4971422;28;20475;-80
2021/07/29 03:03:01;;;;;;;3.63;2.30;;;20.30;1.00;;;;;;4975297;28;20822;-79
2021/07/29 03:05:29;;;;;;;3.90;3.07;;;20.30;1.00;;;;;;4977429;28;20540;-80
2021/07/29 03:07:57;;;;;;;5.10;2.67;;;20.30;1.00;;;;;;4987225;28;20451;-78
2021/07/29 03:10:25;;;;;;;2.80;2.60;;;20.20;1.00;;;;;;4976006;28;20521;-80
2021/07/29 03:12:53;;;;;;;4.60;2.80;;;20.20;1.00;;;;;;4978657;28;20550;-80
2021/07/29 03:15:22;;;;;;;2.37;2.20;;;20.20;1.00;;;;;;4977522;28;20467;-80
2021/07/29 03:17:50;;;;;;;3.27;2.83;;;20.20;1.00;;;;;;4979816;28;20458;-80
2021/07/29 03:20:20;;;;;;;2.90;2.40;;;20.20;1.00;;;;;;4977274;28;20483;-80
2021/07/29 03:22:48;;;;;;;2.80;2.60;;;20.00;1.00;;;;;;4970935;28;20466;-79
2021/07/29 03:25:16;;;;;;;2.43;2.23;;;20.10;1.00;;;;;;4989779;28;20473;-80
2021/07/29 03:27:45;;;;;;;2.20;2.10;;;20.10;1.00;;;;;;4983509;28;20518;-80
2021/07/29 03:30:13;;;;;;;3.20;2.87;;;20.10;1.00;;;;;;4978718;28;20522;-82
2021/07/29 03:32:42;;;;;;;2.90;2.70;;;20.10;1.00;;;;;;4970951;28;20735;-79
2021/07/29 03:35:10;;;;;;;2.90;2.70;;;20.10;1.00;;;;;;4983021;28;20462;-82
2021/07/29 03:37:40;;;;;;;2.30;2.03;;;20.10;1.00;;;;;;4979358;28;20456;-81
2021/07/29 03:40:09;;;;;;;2.30;2.10;;;20.00;1.00;;;;;;4976505;28;20464;-81
2021/07/29 03:42:37;;;;;;;3.73;2.37;;;19.90;1.00;;;;;;4976742;28;20455;-79
2021/07/29 03:45:06;;;;;;;3.13;2.57;;;20.00;1.00;;;;;;4978925;28;20806;-81
2021/07/29 03:47:35;;;;;;;2.73;2.43;;;20.00;1.00;;;;;;4987914;28;20525;-81
2021/07/29 03:50:04;;;;;;;5.60;2.80;;;20.00;1.00;;;;;;4983379;28;20490;-82
2021/07/29 03:52:32;;;;;;;3.10;2.90;;;20.00;1.00;;;;;;4990978;28;20483;-79
2021/07/29 03:55:01;;;;;;;3.17;2.87;;;19.90;1.00;;;;;;4979223;28;20455;-79
2021/07/29 03:57:29;;;;;;;2.43;2.23;;;19.90;1.00;;;;;;4975282;28;20467;-78
2021/07/29 03:59:58;;;;;;;4.28;2.72;;;20.00;1.00;;;;;;4972893;28;20451;-79
2021/07/29 04:02:26;;;;;;;3.40;2.43;;;20.00;1.00;;;;;;4991436;28;20192;-83
2021/07/29 04:04:54;;;;;;;2.40;2.20;;;20.00;1.00;;;;;;4981124;28;20530;-84
2021/07/29 04:07:22;;;;;;;3.10;1.80;;;20.00;1.00;;;;;;4985652;28;20871;-83
2021/07/29 04:09:51;;;;;;;2.30;2.10;;;20.00;1.00;;;;;;4995233;28;20486;-83
2021/07/29 04:12:21;;;;;;;2.37;2.17;;;20.10;1.00;;;;;;4977516;28;20462;-83
2021/07/29 04:14:49;;;;;;;2.70;2.50;;;20.10;1.00;;;;;;4979912;28;20513;-82
2021/07/29 04:17:18;;;;;;;2.67;2.47;;;20.10;1.00;;;;;;4989542;28;20462;-82
2021/07/29 04:19:46;;;;;;;4.40;2.73;;;20.00;1.00;;;;;;4993808;28;20525;-82
2021/07/29 04:22:14;;;;;;;2.13;1.93;;;19.80;1.00;;;;;;4989982;28;20472;-83
2021/07/29 04:24:42;;;;;;;3.13;2.20;;;19.60;1.00;;;;;;4990961;28;20446;-83
2021/07/29 04:27:11;;;;;;;2.33;2.00;;;19.70;1.00;;;;;;4982254;28;20462;-80
2021/07/29 04:29:40;;;;;;;2.40;2.30;;;19.70;1.00;;;;;;4978759;28;20360;-79
2021/07/29 04:32:08;;;;;;;4.43;2.00;;;19.80;1.00;;;;;;4978060;28;20283;-80
2021/07/29 04:34:38;;;;;;;2.27;1.83;;;19.70;1.00;;;;;;4978663;28;20454;-81
2021/07/29 04:37:08;;;;;;;2.30;2.10;;;19.60;1.00;;;;;;4984920;28;20506;-81
2021/07/29 04:39:40;;;;;;;5.77;2.40;;;19.60;1.00;;;;;;4992709;28;20554;-81
2021/07/29 04:42:09;;;;;;;3.00;1.83;;;19.70;1.00;;;;;;4985446;28;20475;-81
2021/07/29 04:44:38;;;;;;;2.50;2.10;;;19.80;1.00;;;;;;4969168;28;20455;-81
2021/07/29 04:47:08;;;;;;;2.53;1.93;;;19.90;1.00;;;;;;4976849;28;20443;-83
2021/07/29 04:49:36;;;;;;;2.47;2.27;;;19.90;1.00;;;;;;4974279;28;20475;-81
2021/07/29 04:52:05;;;;;;;2.00;1.90;;;19.70;1.00;;;;;;4973780;28;20466;-84
2021/07/29 04:54:34;;;;;;;2.20;2.00;;;19.70;1.00;;;;;;4975872;28;20463;-80
2021/07/29 04:57:03;;;;;;;2.13;1.93;;;19.80;1.00;;;;;;4977205;28;20521;-80
2021/07/29 04:59:31;;;;;;;2.77;2.40;;;19.70;1.00;;;;;;4973842;28;20846;-81
2021/07/29 05:01:59;;;;;;;2.03;1.83;;;19.80;1.00;;;;;;4977106;28;20467;-80
2021/07/29 05:04:29;;;;;;;2.40;1.70;;;19.80;1.00;;;;;;4974246;28;20518;-80
2021/07/29 05:06:57;;;;;;;2.20;2.00;;;19.80;1.00;;;;;;4976960;28;20510;-80
2021/07/29 05:09:25;;;;;;;3.27;2.37;;;20.00;1.00;;;;;;4975616;28;21056;-82
2021/07/29 05:11:53;;;;;;;2.17;1.97;;;19.90;1.00;;;;;;4973510;28;20494;-80
2021/07/29 05:14:21;;;;;;;2.50;2.30;;;19.80;1.00;;;;;;4977063;28;20462;-82
2021/07/29 05:16:49;;;;;;;2.23;2.03;;;19.90;1.00;;;;;;4972788;28;20204;-82
2021/07/29 05:19:18;;;;;;;1.97;1.70;;;19.70;1.00;;;;;;4978230;28;20454;-82
2021/07/29 05:21:47;;;;;;;2.47;1.60;;;19.60;1.00;;;;;;4978005;28;20470;-81
2021/07/29 05:24:15;;;;;;;2.90;2.10;;;19.50;1.00;;;;;;4993573;28;20529;-80
2021/07/29 05:26:44;;;;;;;1.70;1.60;;;19.60;1.00;;;;;;4979987;28;20463;-84
2021/07/29 05:29:12;;;;;;;2.90;1.97;;;19.60;1.00;;;;;;4978157;28;20498;-80
2021/07/29 05:31:42;;;;;;;2.00;1.80;;;19.50;1.00;;;;;;4993911;28;20539;-80
2021/07/29 05:34:10;;;;;;;1.87;1.57;;;19.70;1.00;;;;;;4974519;28;20492;-83
2021/07/29 05:36:39;;;;;;;2.40;2.20;;;19.70;1.00;;;;;;4980885;28;20455;-81
2021/07/29 05:39:08;;;;;;;1.80;1.70;;;19.70;1.00;;;;;;4976129;28;20459;-80
2021/07/29 05:41:36;;;;;;;1.63;1.53;;;19.80;1.00;;;;;;4980385;28;20451;-81
2021/07/29 05:44:05;;;;;;;2.53;1.70;;;19.80;1.00;;;;;;4973726;28;20463;-80
2021/07/29 05:46:33;;;;;;;2.03;1.87;;;19.80;1.00;;;;;;4974885;28;20541;-82
2021/07/29 05:49:01;;;;;;;3.50;1.63;;;19.70;1.00;;;;;;4973485;28;20997;-80
2021/07/29 05:51:29;;;;;;;2.83;1.80;;;19.60;1.00;;;;;;4974453;28;20557;-82
2021/07/29 05:53:57;;;;;;;2.53;1.70;;;19.70;1.00;;;;;;4978256;28;20474;-80
2021/07/29 05:56:29;;;;;;;1.67;1.57;;;19.60;1.00;;;;;;4974871;28;20950;-82
2021/07/29 05:58:57;;;;;;;1.70;1.60;;;19.70;1.00;;;;;;4984528;28;20483;-80
2021/07/29 06:01:25;;;;;;;2.20;1.60;;;19.60;1.00;;;;;;4975004;28;20471;-81
2021/07/29 06:03:54;;;;;;;1.97;1.70;;;19.70;1.00;;;;;;4975962;28;20463;-82
2021/07/29 06:06:22;;;;;;;2.73;1.97;;;19.90;1.00;;;;;;4972908;28;20455;-81
2021/07/29 06:08:53;;;;;;;3.40;2.30;;;19.70;1.00;;;;;;4994083;28;20470;-81
2021/07/29 06:11:21;;;;;;;2.30;2.10;;;19.90;1.00;;;;;;4978007;28;20481;-81
2021/07/29 06:13:51;;;;;;;2.30;2.03;;;20.00;1.00;;;;;;4993042;28;20819;-84
2021/07/29 06:16:19;;;;;;;3.10;2.03;;;20.00;1.00;;;;;;4978061;28;20447;-82
2021/07/29 06:18:58;;;;;;;2.37;1.77;;;20.10;1.00;;;;;;4960884;28;20975;-81
2021/07/29 06:21:26;;;;;;;2.00;1.80;;;20.20;1.00;;;;;;4966715;28;20463;-80
2021/07/29 06:23:55;;;;;;;2.90;2.10;;;20.30;1.00;;;;;;4981708;28;20454;-80
2021/07/29 06:26:23;;;;;;;2.80;2.60;;;20.40;1.00;;;;;;4980287;28;20522;-83
2021/07/29 06:28:53;;;;;;;1.70;1.60;;;20.30;1.00;;;;;;4978353;28;20816;-81
2021/07/29 06:31:21;;;;;;;3.80;1.70;;;20.20;1.00;;;;;;4979301;28;20527;-82
2021/07/29 06:33:49;;;;;;;2.30;1.60;;;20.20;1.00;;;;;;4975442;28;20604;-83
2021/07/29 06:36:17;;;;;;;2.07;1.87;;;20.10;1.00;;;;;;4974875;28;20447;-83
2021/07/29 06:38:46;;;;;;;3.63;1.70;;;20.10;1.00;;;;;;4973712;28;20455;-84
2021/07/29 06:41:14;;;;;;;5.80;2.47;;;20.10;1.00;;;;;;4973336;28;21065;-81
2021/07/29 06:43:42;;;;;;;2.73;1.77;;;20.30;1.00;;;;;;4968167;28;21025;-81
2021/07/29 06:46:11;;;;;;;2.13;1.93;;;20.40;1.00;;;;;;4968544;28;20463;-82
2021/07/29 06:48:40;;;;;;;2.03;1.80;;;20.50;1.00;;;;;;4966883;28;20475;-81
2021/07/29 06:51:09;;;;;;;2.27;1.57;;;20.70;1.00;;;;;;4966695;28;20499;-82
2021/07/29 06:53:38;;;;;;;2.80;1.40;;;21.10;1.00;;;;;;4971354;28;20450;-79
2021/07/29 06:56:08;;;;;;;2.80;2.27;;;21.30;1.00;;;;;;4971883;28;20457;-79
2021/07/29 06:58:36;;;;;;;4.33;1.80;;;21.60;1.00;;;;;;4971961;28;20997;-79
2021/07/29 07:01:05;;;;;;;2.03;1.63;;;21.90;1.00;;;;;;4968270;28;20473;-82
2021/07/29 07:03:36;;;;;;;3.83;1.70;;;22.10;1.00;;;;;;4971378;28;20485;-80
2021/07/29 07:06:04;;;;;;;2.20;1.97;;;22.40;1.00;;;;;;4972541;28;20446;-80
2021/07/29 07:08:33;;;;;;;2.53;1.50;;;22.60;1.00;;;;;;4972186;28;20462;-82
2021/07/29 07:11:01;;;;;;;1.83;1.63;;;22.80;99.90;;;;;;4970637;28;20536;-81
2021/07/29 07:13:29;;;;;;;1.90;1.70;;;22.90;99.90;;;;;;4970737;28;20502;-80
2021/07/29 07:15:57;;;;;;;1.87;1.40;;;23.00;99.90;;;;;;4969210;28;20465;-80
2021/07/29 07:18:25;;;;;;;5.07;1.60;;;23.00;99.90;;;;;;4967555;28;20505;-79
2021/07/29 07:21:04;;;;;;;1.70;1.57;;;23.30;99.90;;;;;;4983863;28;20523;-79
2021/07/29 07:23:32;;;;;;;2.90;1.37;;;23.50;99.90;;;;;;4966962;28;20946;-79
2021/07/29 07:26:01;;;;;;;1.80;1.70;;;23.50;99.90;;;;;;4968687;28;20451;-79
2021/07/29 07:28:32;;;;;;;2.03;1.43;;;23.60;99.90;;;;;;4970457;28;20482;-81
2021/07/29 07:31:00;;;;;;;2.17;1.97;;;23.50;99.90;;;;;;4967865;28;20490;-81
2021/07/29 07:33:28;;;;;;;1.53;1.43;;;23.50;99.90;;;;;;4953149;28;20459;-80
2021/07/29 07:35:58;;;;;;;4.50;1.77;;;23.50;99.90;;;;;;4960628;28;20452;-80
2021/07/29 07:38:26;;;;;;;1.80;1.70;;;23.30;99.90;;;;;;4971452;28;20478;-82
2021/07/29 07:40:54;;;;;;;2.97;2.70;;;23.10;99.90;;;;;;4975255;28;20471;-82
2021/07/29 07:43:22;;;;;;;1.90;1.70;;;22.90;99.90;;;;;;4989965;28;20443;-81
2021/07/29 07:45:50;;;;;;;2.07;1.80;;;22.80;99.90;;;;;;4973355;28;20579;-83
2021/07/29 07:48:19;;;;;;;1.80;1.70;;;22.60;99.90;;;;;;4977048;28;20447;-81
2021/07/29 07:50:47;;;;;;;2.57;1.63;;;22.50;99.90;;;;;;4977493;28;20479;-82
2021/07/29 07:53:17;;;;;;;3.33;1.87;;;22.40;99.90;;;;;;4975244;28;20486;-81
2021/07/29 07:55:45;;;;;;;2.47;1.70;;;22.40;99.90;;;;;;4977044;28;20458;-81
2021/07/29 07:58:13;;;;;;;2.70;2.13;;;22.50;99.90;;;;;;4979907;28;20466;-80
2021/07/29 08:00:41;;;;;;;4.17;1.47;;;22.40;99.90;;;;;;4991958;28;20482;-82
2021/07/29 08:03:11;;;;;;;3.03;2.17;;;22.30;99.90;;;;;;4981805;28;20477;-82
2021/07/29 08:05:40;;;;;;;3.10;2.20;;;22.30;99.90;;;;;;4979151;28;20454;-82
2021/07/29 08:08:08;;;;;;;4.17;2.10;;;22.10;99.90;;;;;;4975554;28;20465;-83
2021/07/29 08:10:41;;;;;;;2.70;1.93;;;22.00;99.90;;;;;;4977509;28;20493;-81
2021/07/29 08:13:10;;;;;;;1.70;1.60;;;22.10;99.90;;;;;;4974673;28;20486;-82
2021/07/29 08:15:39;;;;;;;2.37;1.77;;;22.10;99.90;;;;;;4976876;28;20528;-83
2021/07/29 08:18:07;;;;;;;1.80;1.63;;;22.20;99.90;;;;;;4978642;28;20459;-81
2021/07/29 08:20:35;;;;;;;3.83;2.00;;;22.20;99.90;;;;;;4977447;28;20489;-83
2021/07/29 08:23:03;;;;;;;2.03;1.70;;;22.30;99.90;;;;;;4978587;28;20450;-81
2021/07/29 08:25:31;;;;;;;1.90;1.70;;;22.20;99.90;;;;;;4975858;28;20471;-80
2021/07/29 08:28:01;;;;;;;2.63;1.80;;;22.00;99.90;;;;;;4978416;28;20509;-81
2021/07/29 08:30:29;;;;;;;2.70;2.30;;;22.00;99.90;;;;;;4976079;28;20552;-82
2021/07/29 08:32:57;;;;;;;2.10;1.90;;;22.00;99.90;;;;;;4978761;28;20494;-80
2021/07/29 08:35:25;;;;;;;3.57;1.73;;;21.90;99.90;;;;;;4990144;28;20466;-82
2021/07/29 08:37:53;;;;;;;2.30;2.03;;;22.00;99.90;;;;;;4969211;28;20837;-83
2021/07/29 08:40:21;;;;;;;2.30;2.00;;;22.00;99.90;;;;;;4981094;28;20467;-84
2021/07/29 08:42:49;;;;;;;3.50;1.97;;;22.10;99.90;;;;;;4989827;28;20459;-83
2021/07/29 08:45:19;;;;;;;4.50;1.80;;;22.20;99.90;;;;;;4976330;28;20450;-83
2021/07/29 08:47:54;;;;;;;2.70;1.73;;;22.20;99.90;;;;;;4971445;28;20526;-83
2021/07/29 08:50:22;;;;;;;10.90;2.50;;;22.20;99.90;;;;;;4987837;28;20481;-80
2021/07/29 08:52:51;;;;;;;3.23;1.97;;;22.20;99.90;;;;;;4969515;28;20474;-79
2021/07/29 08:55:19;;;;;;;3.33;1.70;;;22.30;99.90;;;;;;4971133;28;20446;-81
2021/07/29 08:57:48;;;;;;;4.57;2.30;;;22.40;99.90;;;;;;4970152;28;20459;-82
2021/07/29 09:00:16;;;;;;;2.37;2.10;;;22.50;99.90;;;;;;4975250;28;21066;-82
2021/07/29 09:02:46;;;;;;;2.10;1.90;;;22.60;99.90;;;;;;4976383;28;20455;-81
2021/07/29 09:05:17;;;;;;;4.30;1.70;;;22.70;99.90;;;;;;4990624;28;20459;-80
2021/07/29 09:07:46;;;;;;;2.43;2.23;;;22.40;99.90;;;;;;4974916;28;20513;-81
2021/07/29 09:10:22;;;;;;;2.77;2.37;;;22.40;99.90;;;;;;4973884;28;20528;-83
2021/07/29 09:13:11;;;;;;;4.00;1.80;;;22.40;99.90;;;;;;4973976;28;20578;-81
2021/07/29 09:15:40;;;;;;;4.53;2.47;;;22.70;99.90;;;;;;4972967;28;20470;-80
2021/07/29 09:18:10;;;;;;;2.23;1.97;;;22.80;99.90;;;;;;4970575;28;20465;-81
2021/07/29 09:20:39;;;;;;;2.47;2.00;;;22.90;99.90;;;;;;4962608;28;20527;-82
2021/07/29 09:23:15;;;;;;;3.03;2.10;;;23.00;99.90;;;;;;4957195;28;20447;-80
2021/07/29 09:25:44;;;;;;;2.10;1.80;;;23.00;99.90;;;;;;4987577;28;20812;-80
2021/07/29 09:28:31;;;;;;;2.47;2.27;;;22.90;99.90;;;;;;4989368;28;20841;-82
2021/07/29 09:30:59;;;;;;;2.50;2.00;;;22.90;99.90;;;;;;4972878;28;20487;-83
2021/07/29 09:33:28;;;;;;;2.93;2.07;;;22.80;99.90;;;;;;4971861;28;20519;-82
2021/07/29 09:35:57;;;;;;;2.20;1.90;;;22.90;99.90;;;;;;4970618;28;20467;-80
2021/07/29 09:38:26;;;;;;;2.10;1.90;;;23.00;99.90;;;;;;4970596;28;20459;-80
2021/07/29 09:40:56;;;;;;;2.63;2.43;;;23.20;99.90;;;;;;4966389;28;20495;-80
2021/07/29 09:43:25;;;;;;;2.43;2.00;;;23.30;99.90;;;;;;4971778;28;20463;-80
2021/07/29 09:45:56;;;;;;;2.90;2.07;;;23.30;99.90;;;;;;4971882;28;20462;-83
2021/07/29 09:48:25;;;;;;;2.10;1.90;;;23.30;99.90;;;;;;4957842;28;20592;-83
2021/07/29 09:50:56;;;;;;;3.50;2.00;;;23.30;99.90;;;;;;4975109;28;20510;-82
2021/07/29 09:53:24;;;;;;;2.13;1.70;;;23.20;99.90;;;;;;4976591;28;20482;-82
2021/07/29 09:55:53;;;;;;;2.33;2.13;;;23.30;99.90;;;;;;4975531;28;20501;-81
2021/07/29 09:58:21;;;;;;;2.13;1.93;;;23.30;99.90;;;;;;4972260;28;20602;-81
2021/07/29 10:00:49;;;;;;;2.23;1.77;;;23.40;99.90;;;;;;4973093;28;20491;-80
2021/07/29 10:03:22;;;;;;;2.40;2.20;;;23.50;99.90;;;;;;4976931;28;20458;-80
2021/07/29 10:05:56;;;;;;;2.90;2.20;;;23.60;99.90;;;;;;4979249;28;20514;-81
2021/07/29 10:08:35;;;;;;;2.00;1.80;;;23.70;99.90;;;;;;4974170;28;20451;-80
2021/07/29 10:11:06;;;;;;;3.70;2.10;;;23.70;99.90;;;;;;4972867;28;20499;-81
2021/07/29 10:13:36;;;;;;;2.90;1.87;;;23.80;99.90;;;;;;4972648;28;20547;-81
2021/07/29 10:16:06;;;;;;;1.90;1.80;;;23.90;99.90;;;;;;4973524;28;20451;-80
2021/07/29 10:19:06;;;;;;;2.27;2.07;;;23.90;99.90;;;;;;4972551;28;20447;-80
2021/07/29 10:21:38;;;;;;;2.60;2.40;;;23.90;99.90;;;;;;4979028;28;20474;-82
2021/07/29 10:24:07;;;;;;;2.50;2.10;;;24.00;99.90;;;;;;4972162;28;20459;-81
2021/07/29 10:26:36;;;;;;;2.77;1.77;;;24.00;99.90;;;;;;4988682;28;20467;-81
2021/07/29 10:29:24;;;;;;;5.73;3.10;;;23.90;99.90;;;;;;4972831;28;20447;-82
2021/07/29 10:31:53;;;;;;;6.40;5.03;;;23.90;99.90;;;;;;4970439;28;20467;-81
2021/07/29 10:34:26;;;;;;;3.27;2.60;;;23.90;99.90;;;;;;4979037;28;20544;-80
2021/07/29 10:36:56;;;;;;;4.10;3.30;;;23.90;99.90;;;;;;4973227;28;20477;-80
2021/07/29 10:39:25;;;;;;;4.10;3.33;;;23.80;99.90;;;;;;4972923;28;20466;-80
2021/07/29 10:41:55;;;;;;;3.07;2.80;;;23.70;99.90;;;;;;4976472;28;20463;-82
2021/07/29 10:44:51;;;;;;;3.57;2.23;;;23.80;99.90;;;;;;4976655;28;20471;-81
2021/07/29 10:47:39;;;;;;;3.80;2.93;;;23.90;99.90;;;;;;4976563;28;20463;-83
2021/07/29 10:50:12;;;;;;;4.03;3.10;;;24.00;99.90;;;;;;4971979;28;20551;-82
2021/07/29 10:52:45;;;;;;;3.53;2.03;;;24.00;99.90;;;;;;4969153;28;20458;-81
2021/07/29 10:55:14;;;;;;;3.30;2.50;;;24.10;99.90;;;;;;4983837;28;20459;-82
2021/07/29 10:57:42;;;;;;;3.00;2.80;;;24.10;99.90;;;;;;4973138;28;20455;-81
2021/07/29 11:00:11;;;;;;;3.80;2.43;;;24.10;99.90;;;;;;4975678;28;20475;-80
2021/07/29 11:02:47;;;;;;;2.33;2.10;;;24.10;99.90;;;;;;4985389;28;20466;-81
2021/07/29 11:05:22;;;;;;;2.37;2.17;;;24.20;99.90;;;;;;4971992;28;20462;-82
2021/07/29 11:07:56;;;;;;;2.37;1.90;;;24.30;99.90;;;;;;4969426;28;20459;-81
2021/07/29 11:10:29;;;;;;;2.73;2.40;;;24.30;99.90;;;;;;4975528;28;20522;-82
2021/07/29 11:12:57;;;;;;;3.67;3.37;;;24.10;99.90;;;;;;4972320;28;20491;-81
2021/07/29 11:15:27;;;;;;;4.23;2.13;;;24.10;99.90;;;;;;4971799;28;21172;-81
2021/07/29 11:18:09;;;;;;;5.33;2.53;;;24.20;99.90;;;;;;4974748;28;20450;-80
2021/07/29 11:20:37;;;;;;;2.60;2.40;;;24.30;99.90;;;;;;4972186;28;20543;-82
2021/07/29 11:23:08;;;;;;;4.10;3.70;;;24.30;99.90;;;;;;4972823;28;20466;-81
2021/07/29 11:25:36;;;;;;;3.00;2.47;;;24.40;99.90;;;;;;4978057;28;20447;-83
2021/07/29 11:28:14;;;;;;;3.57;2.57;;;24.30;99.90;;;;;;4975198;28;20462;-82
2021/07/29 11:30:43;;;;;;;2.80;2.60;;;24.10;99.90;;;;;;4976990;28;20565;-84
2021/07/29 11:33:21;;;;;;;2.30;1.97;;;24.20;99.90;;;;;;4995742;28;20494;-81
2021/07/29 11:35:49;;;;;;;2.83;2.60;;;24.30;99.90;;;;;;4976709;28;20474;-82
2021/07/29 11:38:20;;;;;;;3.00;2.80;;;24.10;99.90;;;;;;4974992;28;20447;-82
2021/07/29 11:40:49;;;;;;;2.43;2.23;;;24.20;99.90;;;;;;4976425;28;21009;-82
2021/07/29 11:43:23;;;;;;;3.27;2.00;;;24.40;99.90;;;;;;4980448;28;20467;-82
2021/07/29 11:45:52;;;;;;;4.53;2.40;;;24.60;99.90;;;;;;4977998;28;20835;-82
2021/07/29 11:48:22;;;;;;;2.20;2.10;;;24.60;99.90;;;;;;4978548;28;20537;-83
2021/07/29 11:50:52;;;;;;;3.80;2.23;;;24.60;99.90;;;;;;4978506;28;20529;-81
2021/07/29 11:53:21;;;;;;;3.10;2.20;;;24.50;99.90;;;;;;4978051;28;20849;-82
2021/07/29 11:55:56;;;;;;;2.20;2.00;;;24.40;99.90;;;;;;4977333;28;20462;-82
2021/07/29 11:58:25;;;;;;;3.97;2.50;;;24.50;99.90;;;;;;4978560;28;20508;-83
2021/07/29 12:00:54;;;;;;;3.63;2.95;;;24.50;99.90;;;;;;4968811;28;20969;-82
2021/07/29 12:03:28;;;;;;;2.90;2.17;;;24.60;99.90;;;;;;4976416;28;20207;-81
2021/07/29 12:05:59;;;;;;;2.70;2.23;;;24.60;99.90;;;;;;4989587;28;20467;-81
2021/07/29 12:08:30;;;;;;;3.73;2.27;;;24.50;99.90;;;;;;4976449;28;20463;-80
2021/07/29 12:10:59;;;;;;;3.30;2.50;;;24.60;99.90;;;;;;4976569;28;20450;-81
2021/07/29 12:13:30;;;;;;;3.00;2.17;;;24.60;99.90;;;;;;4977784;28;20993;-82
2021/07/29 12:15:59;;;;;;;2.60;2.40;;;24.60;99.90;;;;;;4991012;28;20543;-81
2021/07/29 12:18:27;;;;;;;2.73;2.33;;;24.60;99.90;;;;;;4974330;28;20466;-81
2021/07/29 12:20:56;;;;;;;2.70;2.10;;;24.60;99.90;;;;;;4973295;28;20490;-81
2021/07/29 12:23:26;;;;;;;3.03;2.53;;;24.60;99.90;;;;;;4977401;28;20467;-81
2021/07/29 12:26:10;;;;;;;2.83;2.60;;;24.70;99.90;;;;;;4976804;28;20892;-82
2021/07/29 12:28:39;;;;;;;2.20;1.97;;;24.70;99.90;;;;;;4974800;28;20451;-82
2021/07/29 12:31:18;;;;;;;2.20;2.00;;;24.70;99.90;;;;;;4976733;28;20467;-81
2021/07/29 12:33:51;;;;;;;4.70;2.37;;;24.60;99.90;;;;;;4974704;28;20977;-81
2021/07/29 12:36:21;;;;;;;3.80;3.03;;;24.60;99.90;;;;;;4957148;28;20468;-81
2021/07/29 12:39:00;;;;;;;4.50;2.20;;;24.60;99.90;;;;;;4967648;28;20870;-80
2021/07/29 12:41:32;;;;;;;3.83;2.53;;;24.60;99.90;;;;;;4974740;28;20470;-81
2021/07/29 12:44:11;;;;;;;3.30;2.73;;;24.70;99.90;;;;;;4974920;28;20459;-80
2021/07/29 12:46:39;;;;;;;2.53;2.23;;;24.70;99.90;;;;;;4981101;28;20455;-82
2021/07/29 12:49:08;;;;;;;2.47;2.00;;;24.80;99.90;;;;;;4971122;28;20475;-82
2021/07/29 12:51:38;;;;;;;2.87;2.10;;;24.80;99.90;;;;;;4954677;29;20472;-81
2021/07/29 12:54:08;;;;;;;4.00;2.27;;;24.80;99.90;;;;;;4955593;29;20503;-82
2021/07/29 12:56:38;;;;;;;3.53;2.50;;;24.80;99.90;;;;;;4956353;28;20437;-81
2021/07/29 12:59:07;;;;;;;2.83;2.00;;;24.80;99.90;;;;;;4993961;28;20451;-81
2021/07/29 13:01:37;;;;;;;2.93;2.40;;;24.80;99.90;;;;;;4993224;28;20461;-82
2021/07/29 13:04:06;;;;;;;4.87;3.10;;;24.80;99.90;;;;;;4989091;28;20980;-81